Aérodrome :







RETROUVEZ-NOUS SUR...

 
LOGIN :

S'inscrire | Disclaimer

   EN    FR    IT 

 









Légende :    VFR   VFR Marginal   IFR   IFR Intensif   IFR Très Intensif
Visi : 
Plafond : 
>= 8 km
>= 3000ft
5 à 8 km
1000 à 3000 ft
1500m à 5 km
500 à 1000 ft
800 à 1500m
200 à 500 ft
< 800m
< 200 ft
Symboles :   Orages  Brouillard  Fortes neiges  Fortes précipitations  Vent > 20 kt






- Altitude de l'aérodrome : 38 ft
- Code IATA : YMH


CYMH - Mary's Harbour

DERNIER METAR :
  • 242035Z AUTO 11009KT 9SM -SN SCT018 BKN023 BKN035 OVC045 M09/M12 A3023 RMK SLP240

METARs EXPIRÉS :
  • 242024Z AUTO 11009KT 9SM -SN BKN026 BKN033 BKN044 M09/M12 A3024 RMK SLP242
  • 242000Z AUTO 12009KT 9SM -SN OVC021 M09/M13 A3025 RMK SLP245
  • 241951Z AUTO 11007KT 9SM -SN FEW018 BKN023 OVC047 M09/M13 A3025 RMK SLP247
  • 241941Z AUTO 09009KT 9SM -SN FEW018 BKN029 OVC047 M09/M13 A3025 RMK SLP247
  • 241922Z AUTO 10008KT 9SM FEW016 OVC047 M09/M13 A3026 RMK SLP248
  • 241900Z AUTO 12007KT 9SM -SN SCT016 BKN035 OVC047 M09/M13 A3026 RMK SLP251
  • 241857Z AUTO 09007KT 9SM -SN SCT016 OVC035 M09/M13 A3027 RMK SLP252
  • 241825Z AUTO 08008KT 9SM -SN BKN016 OVC044 M10/M13 A3027 RMK SLP253
  • 241800Z AUTO 07007KT 9SM -SN FEW016 OVC048 M10/M14 A3028 RMK SLP255

TAF TAF CYMH
Valide du 24 à 20h jusqu'au 25 à 04h UTC


241941Z 2420/2504 12010KT 6SM -SN SCT015 OVC050
TEMPO 2420/2423 2SM -SN BKN015 OVC050
FM242300 14008KT 6SM -SN OVC015
TEMPO 2423/2502 3SM -SN OVC007
PROB30 2501/2502 2SM -SN -FZDZ BR OVC005 RMK FCST BASED ON AUTO OBS. NXT FCST BY 250200Z



MET'MAP, la Météo Aéronautique d'un coup d'oeil ! - Copyright ORBIFLY Décembre 2007 - Disclaimer

ORBIFLY MET'MAP TEAM :

Programmation & Développement : Alexandra Zaïnal
Sur une idée originale de : Baudouin d'Aumeries
Assistance à la programmation : Marc-Olivier Méhu
Soutien technique & logistique : Manuel Goepfert

Contact : metmap@orbifly.com




SOURCES & CREDITS :

   NOAA